createdAt,value
2022-11-20T00:01:29.617Z,32.95
2022-11-20T00:03:58.727Z,31.55
2022-11-20T00:06:26.380Z,36.08
2022-11-20T00:08:56.582Z,30.02
2022-11-20T00:11:24.807Z,34.45
2022-11-20T00:13:53.900Z,33.40
2022-11-20T00:16:23.555Z,34.35
2022-11-20T00:18:50.793Z,35.13
2022-11-20T00:21:23.385Z,32.92
2022-11-20T00:23:51.318Z,32.80
2022-11-20T00:26:20.198Z,35.78
2022-11-20T00:28:58.462Z,36.47
2022-11-20T00:31:25.737Z,45.17
2022-11-20T00:33:53.105Z,38.13
2022-11-20T00:36:25.485Z,40.60
2022-11-20T00:38:57.063Z,40.25
2022-11-20T00:41:24.889Z,35.95
2022-11-20T00:43:53.387Z,39.63
2022-11-20T00:46:22.602Z,37.83
2022-11-20T00:48:50.040Z,32.42
2022-11-20T00:51:19.432Z,33.45
2022-11-20T00:53:46.474Z,31.17
2022-11-20T00:56:15.698Z,34.05
2022-11-20T00:58:44.941Z,31.02
2022-11-20T01:01:25.165Z,31.88
2022-11-20T01:03:53.397Z,34.05
2022-11-20T01:06:28.908Z,32.10
2022-11-20T01:08:58.239Z,29.77
2022-11-20T01:11:33.715Z,30.35
2022-11-20T01:14:02.805Z,30.67
2022-11-20T01:16:35.571Z,29.50
2022-11-20T01:19:04.483Z,29.08
2022-11-20T01:21:52.216Z,29.50
2022-11-20T01:24:20.896Z,29.40
2022-11-20T01:26:50.691Z,28.77
2022-11-20T01:31:46.530Z,23.10
2022-11-20T01:34:15.294Z,27.80
2022-11-20T01:36:43.243Z,19.93
2022-11-20T01:39:21.216Z,29.17
2022-11-20T01:42:10.071Z,27.35
2022-11-20T01:44:54.227Z,26.48
2022-11-20T01:47:30.148Z,24.85
2022-11-20T01:50:03.475Z,27.15
2022-11-20T01:52:50.524Z,27.27
2022-11-20T01:55:28.694Z,27.48
2022-11-20T01:57:55.841Z,25.80
2022-11-20T02:00:22.868Z,23.85
2022-11-20T02:02:56.708Z,24.13
2022-11-20T02:05:26.437Z,29.17
2022-11-20T02:10:21.045Z,27.58
2022-11-20T02:13:06.203Z,26.52
2022-11-20T02:15:34.606Z,24.27
2022-11-20T02:18:01.516Z,25.73
2022-11-20T02:20:28.633Z,26.17
2022-11-20T02:23:00.632Z,25.40
2022-11-20T02:25:28.825Z,31.42
2022-11-20T02:27:55.690Z,24.88
2022-11-20T02:30:22.341Z,25.90
2022-11-20T02:32:49.011Z,25.50
2022-11-20T02:35:18.738Z,24.73
2022-11-20T02:40:12.624Z,23.83
2022-11-20T02:42:39.281Z,24.23
2022-11-20T02:45:06.793Z,25.85
2022-11-20T02:47:34.152Z,22.55
2022-11-20T02:50:00.881Z,25.67
2022-11-20T02:52:27.559Z,27.33
2022-11-20T02:54:54.324Z,26.63
2022-11-20T02:57:21.044Z,25.30
2022-11-20T02:59:47.776Z,21.95
2022-11-20T03:02:14.381Z,25.33
2022-11-20T03:04:41.170Z,23.15
2022-11-20T03:07:09.397Z,21.83
2022-11-20T03:09:36.084Z,22.52
2022-11-20T03:12:02.708Z,19.63
2022-11-20T03:14:29.290Z,21.60
2022-11-20T03:16:56.852Z,22.20
2022-11-20T03:19:24.484Z,26.17
2022-11-20T03:21:51.011Z,21.77
2022-11-20T03:24:17.673Z,23.15
2022-11-20T03:26:44.418Z,22.23
2022-11-20T03:29:11.076Z,19.42
2022-11-20T03:31:43.067Z,21.63
2022-11-20T03:34:12.269Z,19.05
2022-11-20T03:36:43.403Z,17.13
2022-11-20T03:39:10.424Z,17.55
2022-11-20T03:41:39.321Z,20.20
2022-11-20T03:44:10.132Z,17.30
2022-11-20T03:46:36.954Z,21.98
2022-11-20T03:49:04.272Z,20.50
2022-11-20T03:51:33.429Z,27.27
2022-11-20T03:54:03.135Z,24.92
2022-11-20T03:58:57.703Z,27.30
2022-11-20T04:01:27.463Z,25.77
2022-11-20T04:03:55.794Z,26.38
2022-11-20T04:06:30.752Z,24.35
2022-11-20T04:08:59.411Z,25.25
2022-11-20T04:11:31.407Z,23.75
2022-11-20T04:14:00.356Z,26.70
2022-11-20T04:16:29.772Z,28.33
2022-11-20T04:18:58.785Z,20.50
2022-11-20T04:21:26.436Z,26.50
2022-11-20T04:23:54.046Z,24.92
2022-11-20T04:26:22.075Z,24.15
2022-11-20T04:28:48.742Z,23.83
2022-11-20T04:31:21.389Z,25.80
2022-11-20T04:33:48.362Z,24.92
2022-11-20T04:36:23.925Z,28.50
2022-11-20T04:38:57.350Z,24.98
2022-11-20T04:41:30.526Z,25.90
2022-11-20T04:44:02.820Z,22.52
2022-11-20T04:46:30.970Z,22.55
2022-11-20T04:48:57.576Z,22.55
2022-11-20T04:51:24.761Z,27.55
2022-11-20T04:53:51.612Z,22.02
2022-11-20T04:56:18.754Z,20.02
2022-11-20T04:58:45.537Z,22.58
2022-11-20T05:01:17.852Z,18.92
2022-11-20T05:03:45.841Z,22.95
2022-11-20T05:06:14.942Z,19.77
2022-11-20T05:08:42.203Z,21.70
2022-11-20T05:11:14.053Z,17.60
2022-11-20T05:13:41.381Z,22.88
2022-11-20T05:16:11.032Z,21.60
2022-11-20T05:18:39.020Z,22.52
2022-11-20T05:21:06.486Z,20.30
2022-11-20T05:23:34.121Z,22.45
2022-11-20T05:26:01.866Z,22.55
2022-11-20T05:28:30.145Z,21.92
2022-11-20T05:30:57.002Z,20.65
2022-11-20T05:33:23.829Z,29.92
2022-11-20T05:35:50.440Z,25.05
2022-11-20T05:38:16.972Z,21.17
2022-11-20T05:40:43.745Z,18.33
2022-11-20T05:43:10.302Z,19.08
2022-11-20T05:45:36.950Z,19.58
2022-11-20T05:48:04.098Z,18.10
2022-11-20T05:50:30.810Z,20.80
2022-11-20T05:53:00.557Z,18.15
2022-11-20T05:57:55.870Z,20.02
2022-11-20T06:00:23.636Z,20.52
2022-11-20T06:02:50.378Z,19.27
2022-11-20T06:05:17.214Z,21.48
2022-11-20T06:07:43.877Z,19.13
2022-11-20T06:10:10.529Z,20.70
2022-11-20T06:12:37.071Z,19.45
2022-11-20T06:15:05.946Z,19.50
2022-11-20T06:17:32.755Z,19.87
2022-11-20T06:19:59.381Z,20.38
2022-11-20T06:22:26.064Z,22.38
2022-11-20T06:24:52.644Z,20.08
2022-11-20T06:27:19.338Z,19.30
2022-11-20T06:29:45.926Z,20.13
2022-11-20T06:32:12.559Z,17.42
2022-11-20T06:34:39.141Z,19.67
2022-11-20T06:37:05.760Z,25.85
2022-11-20T06:39:32.303Z,27.55
2022-11-20T06:41:59.473Z,17.23
2022-11-20T06:44:26.782Z,26.63
2022-11-20T06:46:53.430Z,20.67
2022-11-20T06:49:20.360Z,21.83
2022-11-20T06:51:47.112Z,23.95
2022-11-20T06:54:13.742Z,19.63
2022-11-20T06:56:40.415Z,19.75
2022-11-20T06:59:08.250Z,22.02
2022-11-20T07:01:35.908Z,18.08
2022-11-20T07:04:04.124Z,21.13
2022-11-20T07:06:30.913Z,21.25
2022-11-20T07:08:58.017Z,24.48
2022-11-20T07:11:24.775Z,21.95
2022-11-20T07:13:51.470Z,18.52
2022-11-20T07:16:18.191Z,19.60
2022-11-20T07:18:49.966Z,20.13
2022-11-20T07:21:17.232Z,22.10
2022-11-20T07:23:43.828Z,21.88
2022-11-20T07:26:11.708Z,18.92
2022-11-20T07:28:38.508Z,19.90
2022-11-20T07:31:06.010Z,19.50
2022-11-20T07:33:32.794Z,22.80
2022-11-20T07:36:01.102Z,20.55
2022-11-20T07:38:27.893Z,20.38
2022-11-20T07:40:56.743Z,22.38
2022-11-20T07:43:23.346Z,24.13
2022-11-20T07:45:49.990Z,25.67
2022-11-20T07:48:16.620Z,22.55
2022-11-20T07:50:43.233Z,25.30
2022-11-20T07:53:09.933Z,24.95
2022-11-20T07:55:36.438Z,21.85
2022-11-20T07:58:03.002Z,22.42
2022-11-20T08:00:29.627Z,19.92
2022-11-20T08:02:56.384Z,24.73
2022-11-20T08:05:23.490Z,20.80
2022-11-20T08:07:50.285Z,22.48
2022-11-20T08:10:17.623Z,20.73
2022-11-20T08:13:08.007Z,18.80
2022-11-20T08:15:35.581Z,18.48
2022-11-20T08:20:54.084Z,17.90
2022-11-20T08:23:20.680Z,15.93
2022-11-20T08:25:51.923Z,20.00
2022-11-20T08:28:21.656Z,20.08
2022-11-20T08:30:50.237Z,22.23
2022-11-20T08:33:18.213Z,20.98
2022-11-20T08:35:44.975Z,23.48
2022-11-20T08:38:11.634Z,24.50
2022-11-20T08:40:38.219Z,29.73
2022-11-20T08:43:05.411Z,32.60
2022-11-20T08:45:34.910Z,31.20
2022-11-20T08:50:29.524Z,33.95
2022-11-20T08:52:56.144Z,34.28
2022-11-20T08:55:22.752Z,35.63
2022-11-20T08:57:51.018Z,42.47
2022-11-20T09:00:18.117Z,40.38
2022-11-20T09:02:44.693Z,34.10
2022-11-20T09:05:11.351Z,36.90
2022-11-20T09:07:38.044Z,39.55
2022-11-20T09:12:52.775Z,36.22
2022-11-20T09:15:20.360Z,38.42
2022-11-20T09:17:57.946Z,41.30
2022-11-20T09:20:25.667Z,41.60
2022-11-20T09:22:52.372Z,47.22
2022-11-20T09:25:19.788Z,47.45
2022-11-20T09:27:47.156Z,47.80
2022-11-20T09:30:15.600Z,55.25
2022-11-20T09:32:42.975Z,48.63
2022-11-20T09:35:10.249Z,52.53
2022-11-20T09:37:36.912Z,49.00
2022-11-20T09:40:04.113Z,50.42
2022-11-20T09:42:44.438Z,53.70
2022-11-20T09:45:39.041Z,53.00
2022-11-20T09:48:13.794Z,48.33
2022-11-20T09:51:04.576Z,55.83
2022-11-20T09:53:48.568Z,54.80
2022-11-20T09:56:19.712Z,49.75
2022-11-20T09:58:52.585Z,57.97
2022-11-20T10:01:22.088Z,51.05
2022-11-20T10:04:00.774Z,56.08
2022-11-20T10:06:40.759Z,55.55
2022-11-20T10:09:13.636Z,59.75
2022-11-20T10:11:47.364Z,57.50
2022-11-20T10:14:36.432Z,47.92
2022-11-20T10:17:19.950Z,42.33
2022-11-20T10:20:00.807Z,56.13
2022-11-20T10:22:49.354Z,51.13
2022-11-20T10:25:17.128Z,49.58
2022-11-20T10:28:17.368Z,48.20
2022-11-20T10:30:46.800Z,51.38
2022-11-20T10:33:24.350Z,58.10
2022-11-20T10:36:17.512Z,57.47
2022-11-20T10:38:47.942Z,47.55
2022-11-20T10:41:27.062Z,52.83
2022-11-20T10:44:10.160Z,54.75
2022-11-20T10:46:44.923Z,51.20
2022-11-20T10:49:15.794Z,54.35
2022-11-20T10:52:05.656Z,50.90
2022-11-20T10:54:59.354Z,57.58
2022-11-20T10:58:02.931Z,51.72
2022-11-20T11:00:33.059Z,52.47
2022-11-20T11:03:04.063Z,52.90
2022-11-20T11:05:52.334Z,49.45
2022-11-20T11:08:22.628Z,53.72
2022-11-20T11:10:54.304Z,52.70
2022-11-20T11:13:26.473Z,52.60
2022-11-20T11:15:53.843Z,45.42
2022-11-20T11:18:28.220Z,46.60
2022-11-20T11:20:57.172Z,50.25
2022-11-20T11:23:35.329Z,35.72
2022-11-20T11:26:05.129Z,45.17
2022-11-20T11:30:58.712Z,29.33
2022-11-20T11:33:30.147Z,29.00
2022-11-20T11:36:00.451Z,25.45
2022-11-20T11:38:33.785Z,23.80
2022-11-20T11:41:00.738Z,23.02
2022-11-20T11:43:50.198Z,18.25
2022-11-20T11:46:34.569Z,17.70
2022-11-20T11:49:10.357Z,18.25
2022-11-20T11:52:15.672Z,16.83
2022-11-20T11:54:58.033Z,18.80
2022-11-20T11:57:43.155Z,18.92
2022-11-20T12:00:19.134Z,21.00
2022-11-20T12:02:45.714Z,19.27
2022-11-20T12:05:24.472Z,20.80
2022-11-20T12:08:06.941Z,19.17
2022-11-20T12:10:49.567Z,19.25
2022-11-20T12:14:02.949Z,23.20
2022-11-20T12:16:35.773Z,19.50
2022-11-20T12:19:02.551Z,14.32
2022-11-20T12:21:43.363Z,13.85
2022-11-20T12:24:37.638Z,12.13
2022-11-20T12:27:04.712Z,15.52
2022-11-20T12:29:58.348Z,17.33
2022-11-20T12:32:58.832Z,11.70
2022-11-20T12:35:31.633Z,13.57
2022-11-20T12:38:29.080Z,15.95
2022-11-20T12:41:13.796Z,20.98
2022-11-20T12:44:30.764Z,13.80
2022-11-20T12:47:20.091Z,11.52
2022-11-20T12:50:07.270Z,11.98
2022-11-20T12:52:51.272Z,12.13
2022-11-20T12:55:34.719Z,12.43
2022-11-20T12:58:17.495Z,14.85
2022-11-20T13:01:01.480Z,12.68
2022-11-20T13:03:40.111Z,16.92
2022-11-20T13:06:27.081Z,9.38
2022-11-20T13:08:56.867Z,7.15
2022-11-20T13:11:40.773Z,6.53
2022-11-20T13:14:44.525Z,4.72
2022-11-20T13:17:18.685Z,4.95
2022-11-20T13:19:57.260Z,6.78
2022-11-20T13:22:55.594Z,2.75
2022-11-20T13:25:25.254Z,5.25
2022-11-20T13:30:21.555Z,9.25
2022-11-20T13:35:36.198Z,4.32
2022-11-20T13:38:05.985Z,5.40
2022-11-20T13:43:38.032Z,5.15
2022-11-20T13:46:07.708Z,3.25
2022-11-20T13:51:09.569Z,4.88
2022-11-20T13:54:00.684Z,5.15
2022-11-20T13:56:51.997Z,6.03
2022-11-20T13:59:56.433Z,7.68
2022-11-20T14:02:26.026Z,5.35
2022-11-20T14:04:54.863Z,3.35
2022-11-20T14:07:25.325Z,3.00
2022-11-20T14:09:57.520Z,5.95
2022-11-20T14:12:30.693Z,4.70
2022-11-20T14:14:57.518Z,4.60
2022-11-20T14:17:30.306Z,4.07
2022-11-20T14:20:06.034Z,5.88
2022-11-20T14:22:33.020Z,3.83
2022-11-20T14:25:13.981Z,3.53
2022-11-20T14:27:49.021Z,3.83
2022-11-20T14:30:24.467Z,4.05
2022-11-20T14:32:52.640Z,3.03
2022-11-20T14:35:26.256Z,5.20
2022-11-20T14:37:53.951Z,2.95
2022-11-20T14:40:27.589Z,2.55
2022-11-20T14:42:54.563Z,2.17
2022-11-20T14:45:22.986Z,0.82
2022-11-20T14:47:51.154Z,6.38
2022-11-20T14:50:29.561Z,2.80
2022-11-20T14:53:01.402Z,1.10
2022-11-20T14:55:36.504Z,4.88
2022-11-20T14:58:06.787Z,4.03
2022-11-20T15:00:36.141Z,6.75
2022-11-20T15:03:02.700Z,1.38
2022-11-20T15:05:49.945Z,2.75
2022-11-20T15:08:18.072Z,5.03
2022-11-20T15:10:52.162Z,3.72
2022-11-20T15:13:30.477Z,2.72
2022-11-20T15:15:59.096Z,6.32
2022-11-20T15:18:40.471Z,7.63
2022-11-20T15:21:18.999Z,5.47
2022-11-20T15:23:45.912Z,3.40
2022-11-20T15:26:19.912Z,5.75
2022-11-20T15:28:51.437Z,4.07
2022-11-20T15:31:21.871Z,5.22
2022-11-20T15:33:48.858Z,4.95
2022-11-20T15:36:16.564Z,3.97
2022-11-20T15:38:43.233Z,1.50
2022-11-20T15:41:11.227Z,4.38
2022-11-20T15:43:38.059Z,3.65
2022-11-20T15:46:10.268Z,4.72
2022-11-20T15:48:48.319Z,4.35
2022-11-20T15:51:22.068Z,4.70
2022-11-20T15:53:48.708Z,6.97
2022-11-20T15:56:15.742Z,4.57
2022-11-20T15:58:42.568Z,6.57
2022-11-20T16:01:14.973Z,4.18
2022-11-20T16:03:42.301Z,10.88
2022-11-20T16:06:08.858Z,10.65
2022-11-20T16:08:35.789Z,16.63
2022-11-20T16:11:02.997Z,11.85
2022-11-20T16:13:50.194Z,12.38
2022-11-20T16:16:23.468Z,18.75
2022-11-20T16:18:51.054Z,13.80
2022-11-20T16:21:18.163Z,15.15
2022-11-20T16:23:44.932Z,14.18
2022-11-20T16:26:17.819Z,15.43
2022-11-20T16:28:44.836Z,16.00
2022-11-20T16:31:16.800Z,13.05
2022-11-20T16:33:44.083Z,10.43
2022-11-20T16:36:15.970Z,4.53
2022-11-20T16:38:43.029Z,10.23
2022-11-20T16:41:14.380Z,5.57
2022-11-20T16:43:49.534Z,8.65
2022-11-20T16:46:17.363Z,2.38
2022-11-20T16:48:43.961Z,6.32
2022-11-20T16:51:12.133Z,2.75
2022-11-20T16:53:42.680Z,6.45
2022-11-20T16:56:17.972Z,4.80
2022-11-20T16:58:45.812Z,4.57
2022-11-20T17:01:16.227Z,6.32
2022-11-20T17:03:44.663Z,6.88
2022-11-20T17:06:18.320Z,4.75
2022-11-20T17:08:46.405Z,15.85
2022-11-20T17:11:15.930Z,4.28
2022-11-20T17:13:43.036Z,4.25
2022-11-20T17:16:12.862Z,9.77
2022-11-20T17:21:07.557Z,16.70
2022-11-20T17:23:42.284Z,17.90
2022-11-20T17:26:13.925Z,21.20
2022-11-20T17:28:41.436Z,17.95
2022-11-20T17:31:17.564Z,11.40
2022-11-20T17:33:46.432Z,14.90
2022-11-20T17:36:16.225Z,12.67
2022-11-20T17:41:20.555Z,15.13
2022-11-20T17:43:47.342Z,10.70
2022-11-20T17:46:19.198Z,4.47
2022-11-20T17:48:49.529Z,5.85
2022-11-20T17:51:22.214Z,10.13
2022-11-20T17:53:51.481Z,5.47
2022-11-20T17:56:36.677Z,7.50
2022-11-20T17:59:07.872Z,6.45
2022-11-20T18:01:35.512Z,5.75
2022-11-20T18:04:02.854Z,13.15
2022-11-20T18:06:31.215Z,8.60
2022-11-20T18:08:59.646Z,4.05
2022-11-20T18:11:33.843Z,5.05
2022-11-20T18:14:21.404Z,8.23
2022-11-20T18:16:51.425Z,8.75
2022-11-20T18:19:21.376Z,3.97
2022-11-20T18:21:48.080Z,6.03
2022-11-20T18:24:15.362Z,8.30
2022-11-20T18:26:44.520Z,7.20
2022-11-20T18:29:12.796Z,6.05
2022-11-20T18:31:39.946Z,10.88
2022-11-20T18:34:11.679Z,7.65
2022-11-20T18:36:38.927Z,6.43
2022-11-20T18:39:05.959Z,2.03
2022-11-20T18:41:51.079Z,6.32
2022-11-20T18:44:41.700Z,11.88
2022-11-20T18:47:14.617Z,9.35
2022-11-20T18:49:50.642Z,2.03
2022-11-20T18:52:17.825Z,5.78
2022-11-20T18:54:44.547Z,8.93
2022-11-20T18:57:14.657Z,5.68
2022-11-20T18:59:44.552Z,6.00
2022-11-20T19:02:16.160Z,6.45
2022-11-20T19:04:43.445Z,7.65
2022-11-20T19:07:12.205Z,2.92
2022-11-20T19:09:41.099Z,8.93
2022-11-20T19:12:12.426Z,3.75
2022-11-20T19:14:39.416Z,4.30
2022-11-20T19:17:07.900Z,3.72
2022-11-20T19:19:35.982Z,4.50
2022-11-20T19:22:04.256Z,2.70
2022-11-20T19:24:30.965Z,3.20
2022-11-20T19:26:57.684Z,10.40
2022-11-20T19:29:25.750Z,3.83
2022-11-20T19:31:53.610Z,6.97
2022-11-20T19:34:20.559Z,4.95
2022-11-20T19:36:47.585Z,4.47
2022-11-20T19:39:14.263Z,4.20
2022-11-20T19:41:41.617Z,1.80
2022-11-20T19:44:11.111Z,2.72
2022-11-20T19:46:39.353Z,1.85
2022-11-20T19:49:10.125Z,5.25
2022-11-20T19:51:39.305Z,3.65
2022-11-20T19:54:06.963Z,2.03
2022-11-20T19:56:34.295Z,9.40
2022-11-20T19:59:01.394Z,1.77
2022-11-20T20:01:30.746Z,2.30
2022-11-20T20:04:02.526Z,3.72
2022-11-20T20:06:30.160Z,4.22
2022-11-20T20:09:02.733Z,1.55
2022-11-20T20:11:31.548Z,2.67
2022-11-20T20:14:01.250Z,2.67
2022-11-20T20:16:28.824Z,2.38
2022-11-20T20:18:57.603Z,4.50
2022-11-20T20:21:24.503Z,4.82
2022-11-20T20:23:56.028Z,3.78
2022-11-20T20:26:28.662Z,2.88
2022-11-20T20:28:55.790Z,2.63
2022-11-20T20:31:27.791Z,5.90
2022-11-20T20:33:55.211Z,2.50
2022-11-20T20:36:24.067Z,4.47
2022-11-20T20:39:05.210Z,3.10
2022-11-20T20:41:32.345Z,1.48
2022-11-20T20:44:17.753Z,2.35
2022-11-20T20:46:44.360Z,5.07
2022-11-20T20:49:10.993Z,2.58
2022-11-20T20:51:37.684Z,0.70
2022-11-20T20:54:04.775Z,4.18
2022-11-20T20:56:31.596Z,1.95
2022-11-20T20:58:58.433Z,2.22
2022-11-20T21:01:28.514Z,2.88
2022-11-20T21:03:56.290Z,3.25
2022-11-20T21:06:22.981Z,5.20
2022-11-20T21:08:49.691Z,4.05
2022-11-20T21:11:20.044Z,4.20
2022-11-20T21:16:15.363Z,1.90
2022-11-20T21:18:42.104Z,2.35
2022-11-20T21:21:32.068Z,9.85
2022-11-20T21:23:58.642Z,2.47
2022-11-20T21:26:25.315Z,4.75
2022-11-20T21:28:51.965Z,8.88
2022-11-20T21:31:28.828Z,5.15
2022-11-20T21:33:56.575Z,6.25
2022-11-20T21:36:26.118Z,4.85
2022-11-20T21:38:56.584Z,6.07
2022-11-20T21:41:27.307Z,5.55
2022-11-20T21:44:29.000Z,3.60
2022-11-20T21:46:44.380Z,2.97
2022-11-20T21:49:11.620Z,1.95
2022-11-20T21:51:38.764Z,6.55
2022-11-20T21:54:08.329Z,2.70
2022-11-20T21:56:35.372Z,1.88
2022-11-20T21:59:02.164Z,2.63
2022-11-20T22:01:30.385Z,2.90
2022-11-20T22:03:59.845Z,4.50
2022-11-20T22:06:30.250Z,4.97
2022-11-20T22:08:56.868Z,5.95
2022-11-20T22:11:23.777Z,3.08
2022-11-20T22:14:08.895Z,4.00
2022-11-20T22:16:36.864Z,5.82
2022-11-20T22:19:04.626Z,5.80
2022-11-20T22:21:38.195Z,5.43
2022-11-20T22:24:04.934Z,6.50
2022-11-20T22:26:38.804Z,6.07
2022-11-20T22:29:07.229Z,4.95
2022-11-20T22:31:34.091Z,9.75
2022-11-20T22:34:02.333Z,6.30
2022-11-20T22:36:30.524Z,7.95
2022-11-20T22:38:58.215Z,4.10
2022-11-20T22:41:27.437Z,6.05
2022-11-20T22:44:01.855Z,4.25
2022-11-20T22:46:31.238Z,3.97
2022-11-20T22:49:00.103Z,6.38
2022-11-20T22:51:32.797Z,4.90
2022-11-20T22:53:59.955Z,3.10
2022-11-20T22:56:27.192Z,4.82
2022-11-20T22:58:54.755Z,1.98
2022-11-20T23:01:23.828Z,9.20
2022-11-20T23:03:52.630Z,9.32
2022-11-20T23:06:21.630Z,7.03
2022-11-20T23:08:49.225Z,3.57
2022-11-20T23:11:22.454Z,7.20
2022-11-20T23:13:57.940Z,7.22
2022-11-20T23:16:27.117Z,5.78
2022-11-20T23:18:59.975Z,5.53
2022-11-20T23:21:27.324Z,5.45
2022-11-20T23:23:56.349Z,5.90
2022-11-20T23:26:25.779Z,11.13
2022-11-20T23:28:57.822Z,4.97
2022-11-20T23:31:25.856Z,4.70
2022-11-20T23:33:52.568Z,6.70
2022-11-20T23:36:19.351Z,11.52
2022-11-20T23:38:45.950Z,14.32
2022-11-20T23:41:13.328Z,9.65
2022-11-20T23:43:40.387Z,13.82
2022-11-20T23:46:07.105Z,16.15
2022-11-20T23:48:35.905Z,4.00
2022-11-20T23:51:03.346Z,10.45
2022-11-20T23:53:30.505Z,4.07
2022-11-20T23:55:59.587Z,8.23
2022-11-20T23:58:34.942Z,12.32
